sensor_id;sensor_type;location;lat;lon;timestamp;P1;durP1;ratioP1;P2;durP2;ratioP2
22382;SDS011;11359;45.802;13.530;2022-07-21T00:00:41;12.85;;;11.18;;
22382;SDS011;11359;45.802;13.530;2022-07-21T00:03:06;11.73;;;10.50;;
22382;SDS011;11359;45.802;13.530;2022-07-21T00:05:32;10.18;;;8.73;;
22382;SDS011;11359;45.802;13.530;2022-07-21T00:07:59;9.85;;;8.85;;
22382;SDS011;11359;45.802;13.530;2022-07-21T00:10:25;8.65;;;7.75;;
22382;SDS011;11359;45.802;13.530;2022-07-21T00:12:53;9.43;;;7.35;;
22382;SDS011;11359;45.802;13.530;2022-07-21T00:15:20;7.90;;;6.90;;
22382;SDS011;11359;45.802;13.530;2022-07-21T00:17:47;8.00;;;7.20;;
22382;SDS011;11359;45.802;13.530;2022-07-21T00:20:14;8.38;;;7.30;;
22382;SDS011;11359;45.802;13.530;2022-07-21T00:22:40;7.53;;;6.72;;
22382;SDS011;11359;45.802;13.530;2022-07-21T00:25:07;9.35;;;8.02;;
22382;SDS011;11359;45.802;13.530;2022-07-21T00:27:33;8.00;;;7.20;;
22382;SDS011;11359;45.802;13.530;2022-07-21T00:29:59;7.25;;;6.55;;
22382;SDS011;11359;45.802;13.530;2022-07-21T00:32:25;10.43;;;8.75;;
22382;SDS011;11359;45.802;13.530;2022-07-21T00:34:52;9.93;;;8.93;;
22382;SDS011;11359;45.802;13.530;2022-07-21T00:37:17;10.02;;;9.02;;
22382;SDS011;11359;45.802;13.530;2022-07-21T00:39:43;9.32;;;8.43;;
22382;SDS011;11359;45.802;13.530;2022-07-21T00:42:19;9.48;;;8.48;;
22382;SDS011;11359;45.802;13.530;2022-07-21T00:44:46;8.60;;;7.70;;
22382;SDS011;11359;45.802;13.530;2022-07-21T00:47:12;9.55;;;8.10;;
22382;SDS011;11359;45.802;13.530;2022-07-21T00:49:38;8.38;;;7.57;;
22382;SDS011;11359;45.802;13.530;2022-07-21T00:52:03;7.78;;;7.07;;
22382;SDS011;11359;45.802;13.530;2022-07-21T00:54:29;8.05;;;7.25;;
22382;SDS011;11359;45.802;13.530;2022-07-21T00:56:55;7.40;;;6.57;;
22382;SDS011;11359;45.802;13.530;2022-07-21T00:59:21;8.57;;;7.78;;
22382;SDS011;11359;45.802;13.530;2022-07-21T01:01:47;8.23;;;7.32;;
22382;SDS011;11359;45.802;13.530;2022-07-21T01:04:13;8.50;;;7.60;;
22382;SDS011;11359;45.802;13.530;2022-07-21T01:06:38;8.05;;;7.28;;
22382;SDS011;11359;45.802;13.530;2022-07-21T01:09:04;9.07;;;8.23;;
22382;SDS011;11359;45.802;13.530;2022-07-21T01:11:30;8.25;;;7.45;;
22382;SDS011;11359;45.802;13.530;2022-07-21T01:13:56;8.05;;;7.25;;
22382;SDS011;11359;45.802;13.530;2022-07-21T01:16:22;8.15;;;7.28;;
22382;SDS011;11359;45.802;13.530;2022-07-21T01:18:48;7.90;;;7.10;;
22382;SDS011;11359;45.802;13.530;2022-07-21T01:23:52;9.45;;;8.55;;
22382;SDS011;11359;45.802;13.530;2022-07-21T01:26:18;9.93;;;8.60;;
22382;SDS011;11359;45.802;13.530;2022-07-21T01:28:43;9.02;;;8.13;;
22382;SDS011;11359;45.802;13.530;2022-07-21T01:31:09;8.57;;;7.75;;
22382;SDS011;11359;45.802;13.530;2022-07-21T01:33:35;7.72;;;6.93;;
22382;SDS011;11359;45.802;13.530;2022-07-21T01:36:00;7.28;;;6.57;;
22382;SDS011;11359;45.802;13.530;2022-07-21T01:38:26;7.50;;;6.72;;
22382;SDS011;11359;45.802;13.530;2022-07-21T01:43:54;8.47;;;7.57;;
22382;SDS011;11359;45.802;13.530;2022-07-21T01:46:20;7.10;;;6.40;;
22382;SDS011;11359;45.802;13.530;2022-07-21T01:48:46;8.00;;;7.30;;
22382;SDS011;11359;45.802;13.530;2022-07-21T01:51:12;7.95;;;7.15;;
22382;SDS011;11359;45.802;13.530;2022-07-21T01:53:38;6.78;;;6.18;;
22382;SDS011;11359;45.802;13.530;2022-07-21T01:56:04;6.63;;;5.90;;
22382;SDS011;11359;45.802;13.530;2022-07-21T01:58:31;6.45;;;5.82;;
22382;SDS011;11359;45.802;13.530;2022-07-21T02:00:57;6.75;;;5.90;;
22382;SDS011;11359;45.802;13.530;2022-07-21T02:03:23;7.40;;;6.63;;
22382;SDS011;11359;45.802;13.530;2022-07-21T02:05:49;11.02;;;9.25;;
22382;SDS011;11359;45.802;13.530;2022-07-21T02:08:15;14.15;;;11.68;;
22382;SDS011;11359;45.802;13.530;2022-07-21T02:10:40;11.88;;;10.30;;
22382;SDS011;11359;45.802;13.530;2022-07-21T02:13:06;10.73;;;9.63;;
22382;SDS011;11359;45.802;13.530;2022-07-21T02:15:32;9.50;;;8.57;;
22382;SDS011;11359;45.802;13.530;2022-07-21T02:17:58;9.85;;;8.85;;
22382;SDS011;11359;45.802;13.530;2022-07-21T02:20:24;8.98;;;8.07;;
22382;SDS011;11359;45.802;13.530;2022-07-21T02:22:51;7.82;;;7.03;;
22382;SDS011;11359;45.802;13.530;2022-07-21T02:25:17;6.85;;;6.15;;
22382;SDS011;11359;45.802;13.530;2022-07-21T02:27:43;5.75;;;5.15;;
22382;SDS011;11359;45.802;13.530;2022-07-21T02:30:11;5.70;;;5.10;;
22382;SDS011;11359;45.802;13.530;2022-07-21T02:32:37;5.45;;;4.95;;
22382;SDS011;11359;45.802;13.530;2022-07-21T02:35:03;4.55;;;4.15;;
22382;SDS011;11359;45.802;13.530;2022-07-21T02:37:30;4.72;;;4.22;;
22382;SDS011;11359;45.802;13.530;2022-07-21T02:39:55;5.18;;;4.30;;
22382;SDS011;11359;45.802;13.530;2022-07-21T02:42:21;3.90;;;3.50;;
22382;SDS011;11359;45.802;13.530;2022-07-21T02:44:47;4.22;;;3.83;;
22382;SDS011;11359;45.802;13.530;2022-07-21T02:47:13;3.28;;;2.90;;
22382;SDS011;11359;45.802;13.530;2022-07-21T02:49:38;3.50;;;3.03;;
22382;SDS011;11359;45.802;13.530;2022-07-21T02:52:04;3.10;;;2.80;;
22382;SDS011;11359;45.802;13.530;2022-07-21T02:54:31;3.38;;;3.03;;
22382;SDS011;11359;45.802;13.530;2022-07-21T02:56:57;3.17;;;2.88;;
22382;SDS011;11359;45.802;13.530;2022-07-21T02:59:22;3.38;;;2.90;;
22382;SDS011;11359;45.802;13.530;2022-07-21T03:01:48;3.53;;;3.00;;
22382;SDS011;11359;45.802;13.530;2022-07-21T03:04:14;3.58;;;3.05;;
22382;SDS011;11359;45.802;13.530;2022-07-21T03:06:40;3.45;;;3.00;;
22382;SDS011;11359;45.802;13.530;2022-07-21T03:09:07;3.50;;;3.15;;
22382;SDS011;11359;45.802;13.530;2022-07-21T03:11:34;3.47;;;3.10;;
22382;SDS011;11359;45.802;13.530;2022-07-21T03:14:00;3.58;;;3.28;;
22382;SDS011;11359;45.802;13.530;2022-07-21T03:16:26;3.40;;;3.10;;
22382;SDS011;11359;45.802;13.530;2022-07-21T03:18:52;4.00;;;3.22;;
22382;SDS011;11359;45.802;13.530;2022-07-21T03:21:18;3.47;;;3.17;;
22382;SDS011;11359;45.802;13.530;2022-07-21T03:23:44;3.85;;;3.13;;
22382;SDS011;11359;45.802;13.530;2022-07-21T03:26:12;3.35;;;3.05;;
22382;SDS011;11359;45.802;13.530;2022-07-21T03:28:39;3.80;;;3.20;;
22382;SDS011;11359;45.802;13.530;2022-07-21T03:31:06;3.38;;;3.08;;
22382;SDS011;11359;45.802;13.530;2022-07-21T03:33:32;3.67;;;3.33;;
22382;SDS011;11359;45.802;13.530;2022-07-21T03:35:58;4.03;;;3.42;;
22382;SDS011;11359;45.802;13.530;2022-07-21T03:38:25;3.70;;;3.10;;
22382;SDS011;11359;45.802;13.530;2022-07-21T03:40:51;3.72;;;3.20;;
22382;SDS011;11359;45.802;13.530;2022-07-21T03:43:17;4.82;;;3.65;;
22382;SDS011;11359;45.802;13.530;2022-07-21T03:45:43;4.03;;;3.50;;
22382;SDS011;11359;45.802;13.530;2022-07-21T03:48:09;3.78;;;3.13;;
22382;SDS011;11359;45.802;13.530;2022-07-21T03:50:39;3.33;;;3.03;;
22382;SDS011;11359;45.802;13.530;2022-07-21T03:53:07;3.83;;;3.10;;
22382;SDS011;11359;45.802;13.530;2022-07-21T03:55:33;3.78;;;3.00;;
22382;SDS011;11359;45.802;13.530;2022-07-21T03:58:01;3.42;;;2.80;;
22382;SDS011;11359;45.802;13.530;2022-07-21T04:00:30;4.13;;;2.90;;
22382;SDS011;11359;45.802;13.530;2022-07-21T04:02:59;3.40;;;2.80;;
22382;SDS011;11359;45.802;13.530;2022-07-21T04:05:25;3.05;;;2.75;;
22382;SDS011;11359;45.802;13.530;2022-07-21T04:07:51;3.60;;;3.10;;
22382;SDS011;11359;45.802;13.530;2022-07-21T04:10:19;3.47;;;2.90;;
22382;SDS011;11359;45.802;13.530;2022-07-21T04:12:47;5.82;;;4.35;;
22382;SDS011;11359;45.802;13.530;2022-07-21T04:15:14;6.68;;;5.97;;
22382;SDS011;11359;45.802;13.530;2022-07-21T04:17:40;6.43;;;5.80;;
22382;SDS011;11359;45.802;13.530;2022-07-21T04:20:06;7.10;;;5.60;;
22382;SDS011;11359;45.802;13.530;2022-07-21T04:22:33;7.10;;;6.40;;
22382;SDS011;11359;45.802;13.530;2022-07-21T04:24:59;7.20;;;6.30;;
22382;SDS011;11359;45.802;13.530;2022-07-21T04:27:26;9.20;;;7.00;;
22382;SDS011;11359;45.802;13.530;2022-07-21T04:29:52;9.73;;;7.85;;
22382;SDS011;11359;45.802;13.530;2022-07-21T04:32:19;9.77;;;8.52;;
22382;SDS011;11359;45.802;13.530;2022-07-21T04:34:44;8.88;;;7.70;;
22382;SDS011;11359;45.802;13.530;2022-07-21T04:37:10;9.20;;;7.78;;
22382;SDS011;11359;45.802;13.530;2022-07-21T04:39:36;9.93;;;8.23;;
22382;SDS011;11359;45.802;13.530;2022-07-21T04:42:02;10.00;;;8.65;;
22382;SDS011;11359;45.802;13.530;2022-07-21T04:44:28;8.88;;;7.90;;
22382;SDS011;11359;45.802;13.530;2022-07-21T04:46:53;10.63;;;8.73;;
22382;SDS011;11359;45.802;13.530;2022-07-21T04:49:19;9.65;;;7.47;;
22382;SDS011;11359;45.802;13.530;2022-07-21T04:51:45;9.93;;;8.40;;
22382;SDS011;11359;45.802;13.530;2022-07-21T04:54:11;9.10;;;7.65;;
22382;SDS011;11359;45.802;13.530;2022-07-21T04:56:40;9.20;;;7.93;;
22382;SDS011;11359;45.802;13.530;2022-07-21T04:59:06;9.13;;;7.63;;
22382;SDS011;11359;45.802;13.530;2022-07-21T05:01:32;9.10;;;8.20;;
22382;SDS011;11359;45.802;13.530;2022-07-21T05:03:58;8.93;;;7.50;;
22382;SDS011;11359;45.802;13.530;2022-07-21T05:06:24;9.18;;;7.72;;
22382;SDS011;11359;45.802;13.530;2022-07-21T05:08:50;8.70;;;7.80;;
22382;SDS011;11359;45.802;13.530;2022-07-21T05:11:16;8.15;;;7.22;;
22382;SDS011;11359;45.802;13.530;2022-07-21T05:13:42;10.55;;;7.38;;
22382;SDS011;11359;45.802;13.530;2022-07-21T05:16:08;8.50;;;7.57;;
22382;SDS011;11359;45.802;13.530;2022-07-21T05:18:34;8.50;;;7.45;;
22382;SDS011;11359;45.802;13.530;2022-07-21T05:20:59;8.48;;;6.90;;
22382;SDS011;11359;45.802;13.530;2022-07-21T05:23:25;7.78;;;6.30;;
22382;SDS011;11359;45.802;13.530;2022-07-21T05:25:51;6.40;;;5.65;;
22382;SDS011;11359;45.802;13.530;2022-07-21T05:28:17;6.50;;;5.78;;
22382;SDS011;11359;45.802;13.530;2022-07-21T05:30:43;5.97;;;5.35;;
22382;SDS011;11359;45.802;13.530;2022-07-21T05:33:08;6.60;;;5.43;;
22382;SDS011;11359;45.802;13.530;2022-07-21T05:35:34;5.93;;;5.07;;
22382;SDS011;11359;45.802;13.530;2022-07-21T05:38:00;5.25;;;4.72;;
22382;SDS011;11359;45.802;13.530;2022-07-21T05:40:27;5.75;;;4.95;;
22382;SDS011;11359;45.802;13.530;2022-07-21T05:42:52;6.45;;;5.10;;
22382;SDS011;11359;45.802;13.530;2022-07-21T05:45:18;5.15;;;4.65;;
22382;SDS011;11359;45.802;13.530;2022-07-21T05:47:44;4.70;;;4.10;;
22382;SDS011;11359;45.802;13.530;2022-07-21T05:50:10;6.43;;;4.72;;
22382;SDS011;11359;45.802;13.530;2022-07-21T05:52:37;5.38;;;4.35;;
22382;SDS011;11359;45.802;13.530;2022-07-21T05:55:03;5.50;;;4.88;;
22382;SDS011;11359;45.802;13.530;2022-07-21T05:57:29;5.50;;;4.82;;
22382;SDS011;11359;45.802;13.530;2022-07-21T05:59:55;5.25;;;4.68;;
22382;SDS011;11359;45.802;13.530;2022-07-21T06:02:21;5.07;;;4.40;;
22382;SDS011;11359;45.802;13.530;2022-07-21T06:04:46;4.65;;;4.22;;
22382;SDS011;11359;45.802;13.530;2022-07-21T06:07:12;5.50;;;5.00;;
22382;SDS011;11359;45.802;13.530;2022-07-21T06:09:38;6.30;;;5.38;;
22382;SDS011;11359;45.802;13.530;2022-07-21T06:12:03;6.95;;;5.70;;
22382;SDS011;11359;45.802;13.530;2022-07-21T06:14:29;6.57;;;5.60;;
22382;SDS011;11359;45.802;13.530;2022-07-21T06:16:55;6.93;;;5.68;;
22382;SDS011;11359;45.802;13.530;2022-07-21T06:19:21;8.23;;;6.47;;
22382;SDS011;11359;45.802;13.530;2022-07-21T06:21:46;10.27;;;9.05;;
22382;SDS011;11359;45.802;13.530;2022-07-21T06:24:12;11.77;;;9.98;;
22382;SDS011;11359;45.802;13.530;2022-07-21T06:26:38;10.27;;;9.25;;
22382;SDS011;11359;45.802;13.530;2022-07-21T06:29:05;10.55;;;8.80;;
22382;SDS011;11359;45.802;13.530;2022-07-21T06:31:31;10.93;;;8.57;;
22382;SDS011;11359;45.802;13.530;2022-07-21T06:33:58;8.98;;;7.97;;
22382;SDS011;11359;45.802;13.530;2022-07-21T06:36:23;10.18;;;9.15;;
22382;SDS011;11359;45.802;13.530;2022-07-21T06:38:49;18.63;;;14.68;;
22382;SDS011;11359;45.802;13.530;2022-07-21T06:41:15;22.13;;;18.23;;
22382;SDS011;11359;45.802;13.530;2022-07-21T06:43:40;22.10;;;17.73;;
22382;SDS011;11359;45.802;13.530;2022-07-21T06:46:06;21.23;;;18.25;;
22382;SDS011;11359;45.802;13.530;2022-07-21T06:48:32;24.15;;;18.90;;
22382;SDS011;11359;45.802;13.530;2022-07-21T06:50:58;22.13;;;18.83;;
22382;SDS011;11359;45.802;13.530;2022-07-21T06:53:25;20.70;;;17.55;;
22382;SDS011;11359;45.802;13.530;2022-07-21T06:55:52;18.77;;;16.48;;
22382;SDS011;11359;45.802;13.530;2022-07-21T06:58:21;17.58;;;15.30;;
22382;SDS011;11359;45.802;13.530;2022-07-21T07:00:49;19.50;;;16.17;;
22382;SDS011;11359;45.802;13.530;2022-07-21T07:03:16;16.25;;;13.93;;
22382;SDS011;11359;45.802;13.530;2022-07-21T07:05:43;15.85;;;13.57;;
22382;SDS011;11359;45.802;13.530;2022-07-21T07:08:10;14.05;;;12.18;;
22382;SDS011;11359;45.802;13.530;2022-07-21T07:10:37;12.93;;;11.52;;
22382;SDS011;11359;45.802;13.530;2022-07-21T07:13:03;20.05;;;17.73;;
22382;SDS011;11359;45.802;13.530;2022-07-21T07:15:29;22.92;;;20.20;;
22382;SDS011;11359;45.802;13.530;2022-07-21T07:17:55;40.90;;;34.80;;
22382;SDS011;11359;45.802;13.530;2022-07-21T07:20:21;34.53;;;29.95;;
22382;SDS011;11359;45.802;13.530;2022-07-21T07:22:47;32.85;;;28.45;;
22382;SDS011;11359;45.802;13.530;2022-07-21T07:25:13;28.05;;;24.45;;
22382;SDS011;11359;45.802;13.530;2022-07-21T07:27:47;23.30;;;20.83;;
22382;SDS011;11359;45.802;13.530;2022-07-21T07:30:14;19.48;;;17.40;;
22382;SDS011;11359;45.802;13.530;2022-07-21T07:32:41;17.02;;;15.20;;
22382;SDS011;11359;45.802;13.530;2022-07-21T07:35:10;14.40;;;12.85;;
22382;SDS011;11359;45.802;13.530;2022-07-21T07:37:37;12.57;;;11.27;;
22382;SDS011;11359;45.802;13.530;2022-07-21T07:40:05;12.10;;;10.90;;
22382;SDS011;11359;45.802;13.530;2022-07-21T07:42:33;12.68;;;10.93;;
22382;SDS011;11359;45.802;13.530;2022-07-21T07:44:59;10.98;;;9.88;;
22382;SDS011;11359;45.802;13.530;2022-07-21T07:47:25;8.93;;;8.02;;
22382;SDS011;11359;45.802;13.530;2022-07-21T07:49:52;9.93;;;8.93;;
22382;SDS011;11359;45.802;13.530;2022-07-21T07:52:19;10.45;;;9.45;;
22382;SDS011;11359;45.802;13.530;2022-07-21T07:54:45;21.48;;;19.08;;
22382;SDS011;11359;45.802;13.530;2022-07-21T07:57:11;24.52;;;20.90;;
22382;SDS011;11359;45.802;13.530;2022-07-21T07:59:36;19.73;;;17.67;;
22382;SDS011;11359;45.802;13.530;2022-07-21T08:02:02;19.73;;;17.67;;
22382;SDS011;11359;45.802;13.530;2022-07-21T08:04:28;26.58;;;23.83;;
22382;SDS011;11359;45.802;13.530;2022-07-21T08:06:53;27.73;;;24.73;;
22382;SDS011;11359;45.802;13.530;2022-07-21T08:09:19;24.45;;;21.98;;
22382;SDS011;11359;45.802;13.530;2022-07-21T08:11:46;27.58;;;24.70;;
22382;SDS011;11359;45.802;13.530;2022-07-21T08:14:12;23.08;;;20.77;;
22382;SDS011;11359;45.802;13.530;2022-07-21T08:16:39;20.83;;;18.73;;
22382;SDS011;11359;45.802;13.530;2022-07-21T08:19:05;18.45;;;16.60;;
22382;SDS011;11359;45.802;13.530;2022-07-21T08:21:30;17.55;;;15.75;;
22382;SDS011;11359;45.802;13.530;2022-07-21T08:23:58;17.52;;;15.82;;
22382;SDS011;11359;45.802;13.530;2022-07-21T08:26:25;19.25;;;17.45;;
22382;SDS011;11359;45.802;13.530;2022-07-21T08:28:54;15.52;;;14.05;;
22382;SDS011;11359;45.802;13.530;2022-07-21T08:31:21;12.63;;;11.52;;
22382;SDS011;11359;45.802;13.530;2022-07-21T08:33:47;10.95;;;9.95;;
22382;SDS011;11359;45.802;13.530;2022-07-21T08:36:13;9.68;;;8.77;;
22382;SDS011;11359;45.802;13.530;2022-07-21T08:38:39;8.27;;;7.55;;
22382;SDS011;11359;45.802;13.530;2022-07-21T08:41:04;7.40;;;6.70;;
22382;SDS011;11359;45.802;13.530;2022-07-21T08:43:33;6.72;;;6.13;;
22382;SDS011;11359;45.802;13.530;2022-07-21T08:46:00;9.75;;;8.90;;
22382;SDS011;11359;45.802;13.530;2022-07-21T08:48:26;11.25;;;10.25;;
22382;SDS011;11359;45.802;13.530;2022-07-21T08:50:54;9.30;;;8.50;;
22382;SDS011;11359;45.802;13.530;2022-07-21T08:53:20;8.23;;;7.53;;
22382;SDS011;11359;45.802;13.530;2022-07-21T08:55:46;7.47;;;6.88;;
22382;SDS011;11359;45.802;13.530;2022-07-21T08:58:12;7.15;;;6.55;;
22382;SDS011;11359;45.802;13.530;2022-07-21T09:00:40;7.82;;;7.13;;
22382;SDS011;11359;45.802;13.530;2022-07-21T09:03:23;8.27;;;7.47;;
22382;SDS011;11359;45.802;13.530;2022-07-21T09:08:36;11.60;;;10.50;;
22382;SDS011;11359;45.802;13.530;2022-07-21T09:11:23;13.43;;;12.18;;
22382;SDS011;11359;45.802;13.530;2022-07-21T09:14:11;15.48;;;13.98;;
22382;SDS011;11359;45.802;13.530;2022-07-21T09:19:06;10.00;;;9.10;;
22382;SDS011;11359;45.802;13.530;2022-07-21T09:21:39;9.35;;;8.45;;
22382;SDS011;11359;45.802;13.530;2022-07-21T09:24:12;7.32;;;6.72;;
22382;SDS011;11359;45.802;13.530;2022-07-21T09:26:55;8.73;;;7.95;;
22382;SDS011;11359;45.802;13.530;2022-07-21T09:29:21;9.18;;;8.38;;
22382;SDS011;11359;45.802;13.530;2022-07-21T09:31:47;11.07;;;10.18;;
22382;SDS011;11359;45.802;13.530;2022-07-21T09:34:13;13.48;;;12.27;;
22382;SDS011;11359;45.802;13.530;2022-07-21T09:36:39;18.50;;;16.73;;
22382;SDS011;11359;45.802;13.530;2022-07-21T09:42:19;21.02;;;19.02;;
22382;SDS011;11359;45.802;13.530;2022-07-21T09:44:49;22.05;;;19.95;;
22382;SDS011;11359;45.802;13.530;2022-07-21T09:47:18;25.85;;;23.45;;
22382;SDS011;11359;45.802;13.530;2022-07-21T09:49:45;22.42;;;20.42;;
22382;SDS011;11359;45.802;13.530;2022-07-21T09:52:22;26.45;;;23.95;;
22382;SDS011;11359;45.802;13.530;2022-07-21T09:54:48;28.98;;;26.17;;
22382;SDS011;11359;45.802;13.530;2022-07-21T09:57:17;31.55;;;28.55;;
22382;SDS011;11359;45.802;13.530;2022-07-21T09:59:45;27.15;;;24.75;;
22382;SDS011;11359;45.802;13.530;2022-07-21T10:02:19;23.17;;;21.17;;
22382;SDS011;11359;45.802;13.530;2022-07-21T10:04:48;25.17;;;22.98;;
22382;SDS011;11359;45.802;13.530;2022-07-21T10:07:21;29.17;;;26.45;;
22382;SDS011;11359;45.802;13.530;2022-07-21T10:09:47;28.33;;;25.73;;
22382;SDS011;11359;45.802;13.530;2022-07-21T10:12:17;30.58;;;27.80;;
22382;SDS011;11359;45.802;13.530;2022-07-21T10:14:43;28.65;;;26.00;;
22382;SDS011;11359;45.802;13.530;2022-07-21T10:17:09;26.90;;;24.40;;
22382;SDS011;11359;45.802;13.530;2022-07-21T10:25:23;30.33;;;27.48;;
22382;SDS011;11359;45.802;13.530;2022-07-21T10:30:54;44.20;;;39.95;;
22382;SDS011;11359;45.802;13.530;2022-07-21T10:36:10;50.42;;;45.55;;
22382;SDS011;11359;45.802;13.530;2022-07-21T10:41:38;50.70;;;45.90;;
22382;SDS011;11359;45.802;13.530;2022-07-21T10:49:45;46.45;;;42.03;;
22382;SDS011;11359;45.802;13.530;2022-07-21T10:53:15;52.47;;;47.35;;
22382;SDS011;11359;45.802;13.530;2022-07-21T10:55:22;44.83;;;40.72;;
22382;SDS011;11359;45.802;13.530;2022-07-21T11:00:39;35.20;;;31.75;;
22382;SDS011;11359;45.802;13.530;2022-07-21T11:08:39;26.20;;;23.90;;
22382;SDS011;11359;45.802;13.530;2022-07-21T11:11:10;22.98;;;20.88;;
22382;SDS011;11359;45.802;13.530;2022-07-21T11:21:53;25.25;;;22.85;;
22382;SDS011;11359;45.802;13.530;2022-07-21T11:24:19;24.33;;;22.05;;
22382;SDS011;11359;45.802;13.530;2022-07-21T11:26:53;21.98;;;20.00;;
22382;SDS011;11359;45.802;13.530;2022-07-21T11:29:40;19.63;;;17.77;;
22382;SDS011;11359;45.802;13.530;2022-07-21T11:32:07;16.92;;;15.32;;
22382;SDS011;11359;45.802;13.530;2022-07-21T11:34:49;14.52;;;13.23;;
22382;SDS011;11359;45.802;13.530;2022-07-21T11:37:19;11.52;;;10.52;;
22382;SDS011;11359;45.802;13.530;2022-07-21T11:40:14;12.13;;;10.95;;
22382;SDS011;11359;45.802;13.530;2022-07-21T11:42:42;11.60;;;10.55;;
22382;SDS011;11359;45.802;13.530;2022-07-21T11:45:10;8.65;;;7.85;;
22382;SDS011;11359;45.802;13.530;2022-07-21T11:47:37;8.05;;;7.35;;
22382;SDS011;11359;45.802;13.530;2022-07-21T11:50:04;7.53;;;6.90;;
22382;SDS011;11359;45.802;13.530;2022-07-21T11:52:33;7.25;;;6.55;;
22382;SDS011;11359;45.802;13.530;2022-07-21T11:55:02;7.30;;;6.60;;
22382;SDS011;11359;45.802;13.530;2022-07-21T11:57:30;7.22;;;6.57;;
22382;SDS011;11359;45.802;13.530;2022-07-21T11:59:56;6.22;;;5.63;;
22382;SDS011;11359;45.802;13.530;2022-07-21T12:02:24;6.53;;;5.93;;
22382;SDS011;11359;45.802;13.530;2022-07-21T12:05:02;6.55;;;5.95;;
22382;SDS011;11359;45.802;13.530;2022-07-21T12:07:31;7.57;;;6.88;;
22382;SDS011;11359;45.802;13.530;2022-07-21T12:10:06;6.72;;;6.13;;
22382;SDS011;11359;45.802;13.530;2022-07-21T12:12:38;6.15;;;5.57;;
22382;SDS011;11359;45.802;13.530;2022-07-21T12:17:42;13.77;;;12.30;;
22382;SDS011;11359;45.802;13.530;2022-07-21T12:20:14;14.07;;;12.77;;
22382;SDS011;11359;45.802;13.530;2022-07-21T12:22:49;15.10;;;13.25;;
22382;SDS011;11359;45.802;13.530;2022-07-21T12:25:16;14.43;;;11.43;;
22382;SDS011;11359;45.802;13.530;2022-07-21T12:27:44;12.00;;;10.80;;
22382;SDS011;11359;45.802;13.530;2022-07-21T12:33:14;10.95;;;9.95;;
22382;SDS011;11359;45.802;13.530;2022-07-21T12:35:42;12.13;;;11.02;;
22382;SDS011;11359;45.802;13.530;2022-07-21T12:38:15;12.55;;;11.35;;
22382;SDS011;11359;45.802;13.530;2022-07-21T12:40:45;14.40;;;13.00;;
22382;SDS011;11359;45.802;13.530;2022-07-21T12:45:47;12.10;;;11.00;;
22382;SDS011;11359;45.802;13.530;2022-07-21T12:48:24;11.50;;;10.35;;
22382;SDS011;11359;45.802;13.530;2022-07-21T12:51:12;11.25;;;10.10;;
22382;SDS011;11359;45.802;13.530;2022-07-21T12:53:44;10.20;;;9.30;;
22382;SDS011;11359;45.802;13.530;2022-07-21T12:56:19;9.55;;;8.55;;
22382;SDS011;11359;45.802;13.530;2022-07-21T12:58:52;9.10;;;8.13;;
22382;SDS011;11359;45.802;13.530;2022-07-21T13:01:20;6.90;;;6.30;;
22382;SDS011;11359;45.802;13.530;2022-07-21T13:03:46;8.45;;;6.80;;
22382;SDS011;11359;45.802;13.530;2022-07-21T13:06:13;5.50;;;5.00;;
22382;SDS011;11359;45.802;13.530;2022-07-21T13:08:40;6.55;;;5.88;;
22382;SDS011;11359;45.802;13.530;2022-07-21T13:11:07;7.47;;;6.78;;
22382;SDS011;11359;45.802;13.530;2022-07-21T13:13:35;7.75;;;7.05;;
22382;SDS011;11359;45.802;13.530;2022-07-21T13:16:01;8.07;;;7.28;;
22382;SDS011;11359;45.802;13.530;2022-07-21T13:18:27;7.90;;;7.20;;
22382;SDS011;11359;45.802;13.530;2022-07-21T13:20:53;8.13;;;7.32;;
22382;SDS011;11359;45.802;13.530;2022-07-21T13:23:19;6.88;;;6.28;;
22382;SDS011;11359;45.802;13.530;2022-07-21T13:25:46;6.80;;;6.20;;
22382;SDS011;11359;45.802;13.530;2022-07-21T13:28:13;7.75;;;7.05;;
22382;SDS011;11359;45.802;13.530;2022-07-21T13:30:39;7.32;;;6.72;;
22382;SDS011;11359;45.802;13.530;2022-07-21T13:33:05;7.40;;;6.80;;
22382;SDS011;11359;45.802;13.530;2022-07-21T13:35:31;7.13;;;6.43;;
22382;SDS011;11359;45.802;13.530;2022-07-21T13:37:57;6.38;;;5.85;;
22382;SDS011;11359;45.802;13.530;2022-07-21T13:40:24;7.45;;;6.75;;
22382;SDS011;11359;45.802;13.530;2022-07-21T13:42:51;7.35;;;6.65;;
22382;SDS011;11359;45.802;13.530;2022-07-21T13:45:16;6.13;;;5.63;;
22382;SDS011;11359;45.802;13.530;2022-07-21T13:47:43;6.90;;;6.30;;
22382;SDS011;11359;45.802;13.530;2022-07-21T13:50:09;7.47;;;6.88;;
22382;SDS011;11359;45.802;13.530;2022-07-21T13:52:35;8.88;;;8.07;;
22382;SDS011;11359;45.802;13.530;2022-07-21T13:55:02;10.90;;;9.93;;
22382;SDS011;11359;45.802;13.530;2022-07-21T13:57:28;10.60;;;9.70;;
22382;SDS011;11359;45.802;13.530;2022-07-21T13:59:54;9.68;;;8.77;;
22382;SDS011;11359;45.802;13.530;2022-07-21T14:02:19;10.02;;;9.15;;
22382;SDS011;11359;45.802;13.530;2022-07-21T14:04:45;9.32;;;8.52;;
22382;SDS011;11359;45.802;13.530;2022-07-21T14:07:11;9.82;;;8.93;;
22382;SDS011;11359;45.802;13.530;2022-07-21T14:09:39;9.75;;;8.85;;
22382;SDS011;11359;45.802;13.530;2022-07-21T14:12:05;9.00;;;8.20;;
22382;SDS011;11359;45.802;13.530;2022-07-21T14:14:31;7.03;;;6.43;;
22382;SDS011;11359;45.802;13.530;2022-07-21T14:16:57;5.60;;;5.20;;
22382;SDS011;11359;45.802;13.530;2022-07-21T14:19:23;5.80;;;5.30;;
22382;SDS011;11359;45.802;13.530;2022-07-21T14:21:49;6.00;;;5.40;;
22382;SDS011;11359;45.802;13.530;2022-07-21T14:24:15;6.68;;;6.07;;
22382;SDS011;11359;45.802;13.530;2022-07-21T14:26:59;8.60;;;7.80;;
22382;SDS011;11359;45.802;13.530;2022-07-21T14:29:25;10.68;;;9.65;;
22382;SDS011;11359;45.802;13.530;2022-07-21T14:31:51;10.95;;;9.88;;
22382;SDS011;11359;45.802;13.530;2022-07-21T14:34:17;11.15;;;10.15;;
22382;SDS011;11359;45.802;13.530;2022-07-21T14:36:43;10.02;;;9.23;;
22382;SDS011;11359;45.802;13.530;2022-07-21T14:39:08;8.70;;;8.00;;
22382;SDS011;11359;45.802;13.530;2022-07-21T14:41:34;8.85;;;8.05;;
22382;SDS011;11359;45.802;13.530;2022-07-21T14:44:00;10.38;;;9.38;;
22382;SDS011;11359;45.802;13.530;2022-07-21T14:46:26;9.70;;;8.80;;
22382;SDS011;11359;45.802;13.530;2022-07-21T14:48:52;8.52;;;7.72;;
22382;SDS011;11359;45.802;13.530;2022-07-21T14:51:17;8.10;;;7.40;;
22382;SDS011;11359;45.802;13.530;2022-07-21T14:53:43;10.02;;;9.13;;
22382;SDS011;11359;45.802;13.530;2022-07-21T14:56:09;9.00;;;8.10;;
22382;SDS011;11359;45.802;13.530;2022-07-21T14:58:35;7.82;;;7.13;;
22382;SDS011;11359;45.802;13.530;2022-07-21T15:01:00;6.88;;;6.25;;
22382;SDS011;11359;45.802;13.530;2022-07-21T15:03:26;7.75;;;7.05;;
22382;SDS011;11359;45.802;13.530;2022-07-21T15:05:52;6.45;;;5.95;;
22382;SDS011;11359;45.802;13.530;2022-07-21T15:08:18;7.65;;;6.95;;
22382;SDS011;11359;45.802;13.530;2022-07-21T15:10:44;7.55;;;6.93;;
22382;SDS011;11359;45.802;13.530;2022-07-21T15:13:11;6.45;;;5.88;;
22382;SDS011;11359;45.802;13.530;2022-07-21T15:15:37;6.25;;;5.75;;
22382;SDS011;11359;45.802;13.530;2022-07-21T15:18:05;6.00;;;5.50;;
22382;SDS011;11359;45.802;13.530;2022-07-21T15:20:31;6.20;;;5.70;;
22382;SDS011;11359;45.802;13.530;2022-07-21T15:22:57;7.40;;;6.80;;
22382;SDS011;11359;45.802;13.530;2022-07-21T15:25:23;9.10;;;8.30;;